West Vancouver, British Columbia

4:27 PM PDT on October 20, 2014 (GMT -0700)
West Haven Wynd | Change Station
CLOSE
Current Station
Personal Weather Station
Location: West Vancouver, BRITISH COLUMBIA
Elevation: 350 ft
Nearby Weather Stations

Elev 350 ft 49.36 °N, 123.26 °W | Updated 8 minutes ago

Mostly Cloudy
Mostly Cloudy
62.8 °F
Feels Like 62.8 °F
N
2.7
Wind Variable Wind from West

Tomorrow is forecast to be nearly the same temperature as today.

Today
High -- | Low -- °F
--% Chance of Precip.
Yesterday
High -- | Low -- °F
Precip. -- in
7:41 AM 6:12 PM
Waning Crescent, 8% visible
Pressure 29.72 in
Visibility 20.0 miles
Clouds Few 1800 ft
Few 4000 ft
Mostly Cloudy 14000 ft
Dew Point 56 °F
Humidity 79%
Rainfall 0.20 in
Snow Depth Not available.
UV 1 out of 12
Pollen Not available.
Air Quality Not available.
Flu Activity Not available.
METAR CYVR 202300Z 12009G16KT 20SM FEW018 FEW040TCU BKN140 17/13 A2972 RMK CF1TCU1AC3 SLP064 DENSITY ALT 400FT

More Conditions Fewer Conditions

Pressure 29.72 in
Visibility 20.0 miles
Clouds Few 1800 ft
Few 4000 ft
Mostly Cloudy 14000 ft
Dew Point 56 °F
Humidity 79%
Rainfall 0.20 in
Snow Depth Not available.
UV 1 out of 12
Pollen Not available.
Air Quality Not available.
Flu Activity Not available.
METAR CYVR 202300Z 12009G16KT 20SM FEW018 FEW040TCU BKN140 17/13 A2972 RMK CF1TCU1AC3 SLP064 DENSITY ALT 400FT

More Conditions Fewer Conditions

10-Day Weather Forecast

Almanac

Astronomy

Oct. 20, 2014 Rise Set
Actual Time 7:41 AM PDT 6:12 PM PDT
Civil Twilight 7:09 AM PDT 6:44 PM PDT
Nautical Twilight 6:32 AM PDT 7:21 PM PDT
Astronomical Twilight 5:55 AM PDT 7:58 PM PDT
Moon 4:19 AM PDT 4:51 PM PDT
Length of Visible Light 11h 35m
Length of Day
10h 30m
Tomorrow will be 3m 29s shorter.
Waning Crescent, 8% of the Moon is Illuminated
Today
Waning Crescent
Oct 23
New
Oct 30
First Quarter
Nov 6
Full
Nov 14
Last Quarter

Today's Extremes

Country Highs Country Lows

Community

WunderPhotos

Upload Photos

1,763,544 photos uploaded!

WunderBlogs® & News

By Dr. Jeff Masters
Director of Meteorology, Weather Underground
By Kari Strenfel
Meteorologist, Weather Underground
By Christopher C. Burt
Weather Historian, Weather Underground
October 20, 2014
October 20, 2014
October 20, 2014

Nearby

Snow Depth

Not available.

Earthquake Activity

City Distance Mag. Time & Date
No recent earthquake activity has been reported nearby.
Minimum magnitude displayed is 2.5.

Coastal Water Temperatures

Place Temperature
No Stations Reporting

Nearby Weather Stations